Time;durP1;ratioP1;P1;durP2;ratioP2;P2;SDS_P1;SDS_P2;PMS_P1;PMS_P2;Temp;Humidity;BMP_temperature;BMP_pressure;BME280_temperature;BME280_humidity;BME280_pressure;Samples;Min_cycle;Max_cycle;Signal;HPM_P1;HPM_P2
2023/08/20 00:01:56;;;;;;;11.60;7.93;;;17.90;99.90;;;;;;5054823;28;20562;-63
2023/08/20 00:04:26;;;;;;;12.75;7.72;;;17.80;99.90;;;;;;5072890;28;20055;-61
2023/08/20 00:06:52;;;;;;;11.68;7.03;;;17.80;99.90;;;;;;5038117;28;20066;-62
2023/08/20 00:09:18;;;;;;;13.18;6.63;;;17.70;99.90;;;;;;5089845;28;20048;-62
2023/08/20 00:11:45;;;;;;;9.63;6.68;;;17.80;99.90;;;;;;5092714;28;20044;-62
2023/08/20 00:14:16;;;;;;;9.82;6.30;;;17.90;99.90;;;;;;5074509;28;20070;-63
2023/08/20 00:16:44;;;;;;;10.95;6.82;;;17.90;99.90;;;;;;5074752;28;20071;-63
2023/08/20 00:19:10;;;;;;;10.00;6.57;;;17.90;99.90;;;;;;5075483;28;20048;-62
2023/08/20 00:21:44;;;;;;;10.20;6.20;;;17.90;99.90;;;;;;5054468;28;20053;-63
2023/08/20 00:24:11;;;;;;;8.00;5.90;;;17.90;99.90;;;;;;5055836;28;20044;-62
2023/08/20 00:26:38;;;;;;;8.85;6.10;;;17.90;99.90;;;;;;5072507;28;20063;-62
2023/08/20 00:29:04;;;;;;;9.05;7.05;;;17.90;99.90;;;;;;5087477;28;20055;-62
2023/08/20 00:31:30;;;;;;;8.90;6.63;;;18.00;99.90;;;;;;5092334;28;20044;-63
2023/08/20 00:33:56;;;;;;;10.80;6.28;;;17.90;99.90;;;;;;5092584;28;20472;-62
2023/08/20 00:36:23;;;;;;;10.05;6.40;;;17.80;99.90;;;;;;5092346;28;20429;-62
2023/08/20 00:38:49;;;;;;;13.15;7.88;;;17.80;99.90;;;;;;5077529;28;20488;-62
2023/08/20 00:41:15;;;;;;;8.73;6.82;;;17.90;99.90;;;;;;5071450;28;20452;-63
2023/08/20 00:43:41;;;;;;;10.98;6.70;;;17.80;99.90;;;;;;5072438;28;20105;-62
2023/08/20 00:46:08;;;;;;;8.55;5.85;;;17.80;99.90;;;;;;5072003;28;20052;-63
2023/08/20 00:48:34;;;;;;;11.68;6.07;;;17.80;99.90;;;;;;5083012;28;20078;-62
2023/08/20 00:51:00;;;;;;;9.02;5.88;;;17.90;99.90;;;;;;5057398;28;20052;-63
2023/08/20 00:53:27;;;;;;;7.53;5.05;;;17.80;99.90;;;;;;5092112;28;20056;-62
2023/08/20 00:55:53;;;;;;;9.05;5.03;;;17.90;99.90;;;;;;5057922;28;20149;-62
2023/08/20 00:58:21;;;;;;;8.15;4.72;;;17.90;99.90;;;;;;5064412;28;20376;-62
2023/08/20 01:00:47;;;;;;;9.05;5.70;;;17.80;99.90;;;;;;5037343;28;20122;-63
2023/08/20 01:03:15;;;;;;;10.65;5.93;;;17.80;99.90;;;;;;5072027;28;20366;-62
2023/08/20 01:06:02;;;;;;;9.35;6.03;;;17.80;99.90;;;;;;5071864;28;20134;-62
2023/08/20 01:08:39;;;;;;;7.88;6.00;;;17.80;99.90;;;;;;5066256;28;20064;-62
2023/08/20 01:11:17;;;;;;;11.95;6.60;;;17.70;99.90;;;;;;5073886;28;20052;-61
2023/08/20 01:13:45;;;;;;;10.18;6.65;;;17.70;99.90;;;;;;5074312;28;20056;-64
2023/08/20 01:16:12;;;;;;;9.60;5.93;;;17.70;99.90;;;;;;5074161;28;20058;-62
2023/08/20 01:18:38;;;;;;;10.40;5.95;;;17.60;99.90;;;;;;5045164;28;20461;-62
2023/08/20 01:21:33;;;;;;;11.05;6.15;;;17.60;99.90;;;;;;5071174;28;20060;-62
2023/08/20 01:24:34;;;;;;;10.10;6.18;;;17.70;99.90;;;;;;5053817;28;20056;-62
2023/08/20 01:27:37;;;;;;;7.97;5.03;;;17.60;99.90;;;;;;5072016;28;20059;-63
2023/08/20 01:30:04;;;;;;;11.00;5.30;;;17.70;99.90;;;;;;5050915;28;20182;-63
2023/08/20 01:32:31;;;;;;;7.38;4.50;;;17.60;99.90;;;;;;5051548;28;20110;-63
2023/08/20 01:35:02;;;;;;;10.98;5.63;;;17.60;99.90;;;;;;5034628;28;20053;-63
2023/08/20 01:37:29;;;;;;;10.57;5.32;;;17.60;99.90;;;;;;5053681;28;20057;-62
2023/08/20 01:39:55;;;;;;;10.40;5.28;;;17.60;99.90;;;;;;5071031;28;20489;-62
2023/08/20 01:42:21;;;;;;;10.85;5.63;;;17.50;99.90;;;;;;5057620;28;20126;-63
2023/08/20 01:44:48;;;;;;;9.75;4.75;;;17.50;99.90;;;;;;5075674;28;20479;-63
2023/08/20 01:47:14;;;;;;;10.15;5.00;;;17.50;99.90;;;;;;5075125;28;20044;-63
2023/08/20 01:49:41;;;;;;;8.40;4.90;;;17.50;99.90;;;;;;5067703;28;20044;-63
2023/08/20 01:52:08;;;;;;;9.32;5.18;;;17.50;99.90;;;;;;5075305;28;20105;-62
2023/08/20 01:54:35;;;;;;;8.90;4.63;;;17.50;99.90;;;;;;5057742;28;20048;-62
2023/08/20 01:57:02;;;;;;;7.00;4.90;;;17.50;99.90;;;;;;5075201;28;20044;-63
2023/08/20 01:59:28;;;;;;;9.68;5.03;;;17.50;99.90;;;;;;5067692;28;20124;-62
2023/08/20 02:01:56;;;;;;;10.43;5.45;;;17.40;99.90;;;;;;5074745;28;20049;-62
2023/08/20 02:04:23;;;;;;;7.60;5.22;;;17.50;99.90;;;;;;5075204;28;20040;-62
2023/08/20 02:06:49;;;;;;;9.60;6.07;;;17.40;99.90;;;;;;5075130;28;20054;-62
2023/08/20 02:09:16;;;;;;;9.27;5.75;;;17.40;99.90;;;;;;5056598;28;20044;-63
2023/08/20 02:11:42;;;;;;;8.27;5.72;;;17.40;99.90;;;;;;5074591;28;20052;-61
2023/08/20 02:14:34;;;;;;;9.65;6.40;;;17.50;99.90;;;;;;5057202;28;20060;-62
2023/08/20 02:17:04;;;;;;;9.48;5.65;;;17.50;99.90;;;;;;5074879;28;20045;-62
2023/08/20 02:19:30;;;;;;;10.50;6.20;;;17.40;99.90;;;;;;5067623;28;20044;-63
2023/08/20 02:21:56;;;;;;;10.93;5.70;;;17.40;99.90;;;;;;5074804;28;20052;-62
2023/08/20 02:24:23;;;;;;;10.23;6.32;;;17.40;99.90;;;;;;5074728;28;20041;-63
2023/08/20 02:26:50;;;;;;;9.25;6.03;;;17.30;99.90;;;;;;5040205;28;20476;-62
2023/08/20 02:29:16;;;;;;;9.40;5.53;;;17.30;99.90;;;;;;5074497;28;20114;-62
2023/08/20 02:31:43;;;;;;;7.53;5.90;;;17.30;99.90;;;;;;5056429;28;20383;-62
2023/08/20 02:34:09;;;;;;;8.60;5.50;;;17.30;99.90;;;;;;5074778;28;20100;-62
2023/08/20 02:36:35;;;;;;;9.07;5.60;;;17.30;99.90;;;;;;5048209;28;20045;-62
2023/08/20 02:39:05;;;;;;;9.85;5.95;;;17.30;99.90;;;;;;5066802;28;20132;-63
2023/08/20 02:41:31;;;;;;;11.52;5.97;;;17.20;99.90;;;;;;5073547;28;20154;-62
2023/08/20 02:43:57;;;;;;;10.45;5.72;;;17.20;99.90;;;;;;5039977;28;20063;-63
2023/08/20 02:46:23;;;;;;;10.55;5.45;;;17.20;99.90;;;;;;5056109;28;20483;-62
2023/08/20 02:48:50;;;;;;;11.02;6.10;;;17.10;99.90;;;;;;5074041;28;20053;-62
2023/08/20 02:51:16;;;;;;;10.15;6.03;;;17.00;99.90;;;;;;5073486;28;20048;-63
2023/08/20 02:53:43;;;;;;;8.88;6.60;;;17.00;99.90;;;;;;5072821;28;20134;-62
2023/08/20 02:56:10;;;;;;;10.43;6.35;;;17.00;99.90;;;;;;5073441;28;20377;-62
2023/08/20 02:58:36;;;;;;;10.57;6.28;;;16.80;99.90;;;;;;5066771;28;20066;-63
2023/08/20 03:01:02;;;;;;;8.95;6.50;;;16.80;99.90;;;;;;5073498;28;20041;-62
2023/08/20 03:03:29;;;;;;;12.60;7.00;;;16.80;99.90;;;;;;5073957;28;20044;-62
2023/08/20 03:06:27;;;;;;;9.38;5.97;;;16.70;99.90;;;;;;5073721;28;20105;-62
2023/08/20 03:08:55;;;;;;;10.68;6.85;;;16.70;99.90;;;;;;5055656;28;20064;-62
2023/08/20 03:11:21;;;;;;;9.93;6.10;;;16.60;99.90;;;;;;5073410;28;20056;-62
2023/08/20 03:13:47;;;;;;;8.93;6.32;;;16.60;99.90;;;;;;5074113;28;20139;-62
2023/08/20 03:16:46;;;;;;;10.75;6.70;;;16.60;99.90;;;;;;5055453;28;20056;-62
2023/08/20 03:19:15;;;;;;;13.73;6.75;;;16.60;99.90;;;;;;5066519;28;20082;-62
2023/08/20 03:21:42;;;;;;;10.45;6.28;;;16.50;99.90;;;;;;5072664;28;20090;-62
2023/08/20 03:24:08;;;;;;;10.10;7.22;;;16.50;99.90;;;;;;5073481;28;20041;-62
2023/08/20 03:26:35;;;;;;;10.65;7.03;;;16.50;99.90;;;;;;5073026;28;20125;-62
2023/08/20 03:29:01;;;;;;;11.27;6.80;;;16.50;99.90;;;;;;5073272;28;20052;-62
2023/08/20 03:31:27;;;;;;;12.13;7.15;;;16.50;99.90;;;;;;5072657;28;20122;-62
2023/08/20 03:33:54;;;;;;;10.93;6.78;;;16.50;99.90;;;;;;5039077;28;20052;-62
2023/08/20 03:36:21;;;;;;;11.00;6.85;;;16.40;99.90;;;;;;5073454;28;20056;-62
2023/08/20 03:38:48;;;;;;;9.68;6.55;;;16.40;99.90;;;;;;5066169;28;20120;-62
2023/08/20 03:41:15;;;;;;;11.43;6.72;;;16.40;99.90;;;;;;5072768;28;20049;-62
2023/08/20 03:43:42;;;;;;;13.38;7.40;;;16.30;99.90;;;;;;5055363;28;20045;-62
2023/08/20 03:46:11;;;;;;;10.35;7.07;;;16.30;99.90;;;;;;5072727;28;20483;-64
2023/08/20 03:48:38;;;;;;;9.82;7.15;;;16.30;99.90;;;;;;5072548;28;20053;-62
2023/08/20 03:51:04;;;;;;;12.15;7.18;;;16.30;99.90;;;;;;5072395;28;20063;-62
2023/08/20 03:53:30;;;;;;;10.25;7.63;;;16.30;99.90;;;;;;5072890;28;20386;-62
2023/08/20 03:55:56;;;;;;;10.18;7.00;;;16.30;99.90;;;;;;5072907;28;20052;-62
2023/08/20 03:58:23;;;;;;;11.02;8.02;;;16.30;99.90;;;;;;5065833;28;20110;-62
2023/08/20 04:00:50;;;;;;;12.90;8.52;;;16.30;99.90;;;;;;5051126;28;20045;-62
2023/08/20 04:03:19;;;;;;;9.88;7.72;;;16.20;99.90;;;;;;5069975;28;20110;-62
2023/08/20 04:05:51;;;;;;;12.70;8.10;;;16.20;99.90;;;;;;5054881;28;20098;-62
2023/08/20 04:08:18;;;;;;;12.75;7.40;;;16.20;99.90;;;;;;5072576;28;20148;-62
2023/08/20 04:10:45;;;;;;;12.52;7.93;;;16.30;99.90;;;;;;5054475;28;20048;-62
2023/08/20 04:13:13;;;;;;;11.15;8.02;;;16.20;99.90;;;;;;5072505;28;20436;-62
2023/08/20 04:15:41;;;;;;;12.02;8.38;;;16.30;99.90;;;;;;5054904;28;20434;-62
2023/08/20 04:18:13;;;;;;;13.40;8.15;;;16.20;99.90;;;;;;5048278;28;20453;-62
2023/08/20 04:20:40;;;;;;;14.20;7.78;;;16.20;99.90;;;;;;5046710;28;20044;-62
2023/08/20 04:23:12;;;;;;;11.82;7.50;;;16.30;99.90;;;;;;5072645;28;20045;-62
2023/08/20 04:25:40;;;;;;;9.70;7.63;;;16.20;99.90;;;;;;5072422;28;20048;-62
2023/08/20 04:28:06;;;;;;;10.45;6.82;;;16.20;99.90;;;;;;5072185;28;20048;-62
2023/08/20 04:30:37;;;;;;;11.98;7.45;;;16.30;99.90;;;;;;5053870;28;20389;-62
2023/08/20 04:33:03;;;;;;;10.63;6.88;;;16.40;99.90;;;;;;5038113;28;20052;-62
2023/08/20 04:35:30;;;;;;;10.15;7.35;;;16.30;99.90;;;;;;5072272;28;20053;-62
2023/08/20 04:37:56;;;;;;;11.52;6.65;;;16.40;99.90;;;;;;5067311;28;20053;-61
2023/08/20 04:40:22;;;;;;;9.60;6.90;;;16.40;99.90;;;;;;5050650;28;20052;-62
2023/08/20 04:42:49;;;;;;;10.02;6.95;;;16.40;99.90;;;;;;5072306;28;20398;-62
2023/08/20 04:45:19;;;;;;;10.95;6.40;;;16.30;99.90;;;;;;5071625;28;20048;-62
2023/08/20 04:47:47;;;;;;;11.45;7.68;;;16.40;99.90;;;;;;5054147;28;20045;-62
2023/08/20 04:50:13;;;;;;;11.20;7.22;;;16.50;99.90;;;;;;5071672;28;20052;-62
2023/08/20 04:52:40;;;;;;;11.25;7.07;;;16.50;99.90;;;;;;5054208;28;20048;-63
2023/08/20 04:55:07;;;;;;;11.63;7.05;;;16.50;99.90;;;;;;5072028;28;20064;-62
2023/08/20 04:57:35;;;;;;;8.32;6.97;;;16.50;99.90;;;;;;5052695;28;20048;-63
2023/08/20 05:00:02;;;;;;;11.75;7.22;;;16.60;99.90;;;;;;5037432;28;20122;-62
2023/08/20 05:02:28;;;;;;;10.07;6.88;;;16.60;99.90;;;;;;5036829;28;20064;-62
2023/08/20 05:04:55;;;;;;;10.65;6.35;;;16.60;99.90;;;;;;5053773;28;20105;-62
2023/08/20 05:07:22;;;;;;;10.35;6.55;;;16.60;99.90;;;;;;5071881;28;20052;-62
2023/08/20 05:09:49;;;;;;;8.85;6.05;;;16.60;99.90;;;;;;5071319;28;20059;-62
2023/08/20 05:12:15;;;;;;;9.63;6.90;;;16.70;99.90;;;;;;5071403;28;20427;-62
2023/08/20 05:14:42;;;;;;;8.52;6.30;;;16.70;99.90;;;;;;5071641;28;20134;-61
2023/08/20 05:17:08;;;;;;;9.70;6.70;;;16.70;99.90;;;;;;5071101;28;20049;-62
2023/08/20 05:19:34;;;;;;;9.98;6.13;;;16.70;99.90;;;;;;5065401;28;20048;-62
2023/08/20 05:22:01;;;;;;;8.18;5.70;;;16.70;99.90;;;;;;5071515;28;20044;-62
2023/08/20 05:24:30;;;;;;;9.98;6.40;;;16.80;99.90;;;;;;5071644;28;20049;-61
2023/08/20 05:27:10;;;;;;;9.57;6.15;;;17.00;99.90;;;;;;5053959;28;20086;-62
2023/08/20 05:29:38;;;;;;;11.13;6.57;;;17.40;99.90;;;;;;5070857;28;20423;-62
2023/08/20 05:32:05;;;;;;;10.05;5.88;;;18.00;99.90;;;;;;5071451;28;20060;-62
2023/08/20 05:34:31;;;;;;;10.20;6.80;;;18.60;99.90;;;;;;5071916;28;20052;-62
2023/08/20 05:36:57;;;;;;;12.27;5.78;;;18.80;99.90;;;;;;5071316;28;20106;-62
2023/08/20 05:39:53;;;;;;;11.80;6.03;;;19.20;99.90;;;;;;5051813;28;20326;-63
2023/08/20 05:42:19;;;;;;;8.90;5.88;;;19.90;99.90;;;;;;5048382;28;20057;-62
2023/08/20 05:44:45;;;;;;;11.20;5.60;;;20.40;99.90;;;;;;5071526;28;20106;-63
2023/08/20 05:47:11;;;;;;;10.82;5.78;;;21.10;99.90;;;;;;5071503;28;20060;-62
2023/08/20 05:49:39;;;;;;;10.88;5.18;;;21.50;99.90;;;;;;5052450;28;20060;-63
2023/08/20 05:52:06;;;;;;;9.43;5.68;;;22.00;99.90;;;;;;5071361;28;20053;-62
2023/08/20 05:54:32;;;;;;;10.60;5.70;;;22.30;99.90;;;;;;5053371;28;20044;-62
2023/08/20 05:56:58;;;;;;;10.82;5.63;;;22.70;99.90;;;;;;5053144;28;20067;-63
2023/08/20 05:59:25;;;;;;;8.85;5.30;;;23.10;99.90;;;;;;5052814;28;20040;-64
2023/08/20 06:01:53;;;;;;;8.95;5.10;;;23.50;99.90;;;;;;5053921;28;20061;-62
2023/08/20 06:04:19;;;;;;;8.90;5.65;;;23.70;99.90;;;;;;5037290;28;20067;-62
2023/08/20 06:06:45;;;;;;;10.82;5.10;;;24.00;99.90;;;;;;5053564;28;20234;-62
2023/08/20 06:09:12;;;;;;;9.82;5.15;;;24.40;99.90;;;;;;5070794;28;20052;-62
2023/08/20 06:11:38;;;;;;;8.48;5.13;;;24.50;99.90;;;;;;5071232;28;20067;-62
2023/08/20 06:14:05;;;;;;;9.60;4.95;;;24.40;99.90;;;;;;5070891;28;20448;-62
2023/08/20 06:16:31;;;;;;;8.50;4.95;;;24.70;99.90;;;;;;5053532;28;20045;-62
2023/08/20 06:18:58;;;;;;;8.32;4.97;;;24.60;99.90;;;;;;5047747;28;20339;-63
2023/08/20 06:21:24;;;;;;;9.50;4.90;;;24.70;99.90;;;;;;5051909;28;20381;-62
2023/08/20 06:23:51;;;;;;;11.35;4.88;;;25.00;99.90;;;;;;5071181;28;20502;-63
2023/08/20 06:26:20;;;;;;;8.88;5.25;;;25.10;99.90;;;;;;5071587;28;20061;-63
2023/08/20 06:28:46;;;;;;;11.93;4.97;;;25.30;99.90;;;;;;5056685;28;20049;-62
2023/08/20 06:31:12;;;;;;;10.82;4.90;;;25.50;99.90;;;;;;5074163;28;20194;-63
2023/08/20 06:33:38;;;;;;;6.85;4.53;;;25.70;99.90;;;;;;5075022;28;20348;-63
2023/08/20 06:36:05;;;;;;;8.23;4.45;;;25.70;99.90;;;;;;5056684;28;20519;-62
2023/08/20 06:38:31;;;;;;;9.85;4.88;;;25.90;99.90;;;;;;5068580;28;20127;-62
2023/08/20 06:40:57;;;;;;;7.88;4.57;;;26.10;99.90;;;;;;5074019;28;20557;-62
2023/08/20 06:43:23;;;;;;;7.15;4.50;;;26.00;99.90;;;;;;5074416;28;20049;-62
2023/08/20 06:45:52;;;;;;;7.53;4.97;;;25.80;99.90;;;;;;5074588;28;20044;-63
2023/08/20 06:48:20;;;;;;;7.22;4.40;;;26.00;99.90;;;;;;5056488;28;20349;-63
2023/08/20 06:50:46;;;;;;;8.68;4.70;;;26.10;99.90;;;;;;5056104;28;20048;-63
2023/08/20 06:53:13;;;;;;;8.80;4.32;;;26.00;99.90;;;;;;5074211;28;20044;-63
2023/08/20 06:55:39;;;;;;;7.20;4.00;;;26.20;99.90;;;;;;5073903;28;20052;-63
2023/08/20 06:58:05;;;;;;;8.98;4.47;;;26.10;99.90;;;;;;5069562;28;20060;-63
2023/08/20 07:00:31;;;;;;;9.77;4.60;;;26.10;99.90;;;;;;5072812;28;20670;-63
2023/08/20 07:02:58;;;;;;;9.18;4.47;;;25.90;99.90;;;;;;5074263;28;20362;-63
2023/08/20 07:05:24;;;;;;;9.52;4.32;;;25.90;99.90;;;;;;5056060;28;20373;-63
2023/08/20 07:07:50;;;;;;;7.40;4.20;;;25.90;99.90;;;;;;5073090;28;20469;-63
2023/08/20 07:10:16;;;;;;;10.18;4.60;;;25.70;99.90;;;;;;5073472;28;20056;-63
2023/08/20 07:12:43;;;;;;;8.50;4.47;;;25.70;99.90;;;;;;5073436;28;20060;-62
2023/08/20 07:15:09;;;;;;;8.98;4.70;;;25.70;99.90;;;;;;5055794;28;20056;-62
2023/08/20 07:17:38;;;;;;;8.90;4.93;;;25.60;99.90;;;;;;5055231;28;20456;-63
2023/08/20 07:20:05;;;;;;;10.15;4.00;;;25.60;99.90;;;;;;5055478;28;20048;-62
2023/08/20 07:22:31;;;;;;;11.50;5.10;;;25.70;99.90;;;;;;5073551;28;20052;-63
2023/08/20 07:24:58;;;;;;;10.30;4.60;;;25.80;99.90;;;;;;5055629;28;20048;-63
2023/08/20 07:27:25;;;;;;;8.20;4.10;;;25.80;99.90;;;;;;5073448;28;20049;-63
2023/08/20 07:29:51;;;;;;;10.30;4.93;;;25.60;99.90;;;;;;5054266;28;20060;-62
2023/08/20 07:32:17;;;;;;;10.90;4.30;;;25.20;99.90;;;;;;5072890;28;20403;-63
2023/08/20 07:34:43;;;;;;;10.20;5.25;;;24.80;99.90;;;;;;5073755;28;20407;-63
2023/08/20 07:37:12;;;;;;;10.85;4.75;;;24.50;99.90;;;;;;5072864;28;20048;-62
2023/08/20 07:39:40;;;;;;;12.35;5.03;;;24.20;99.90;;;;;;5053996;28;20244;-63
2023/08/20 07:42:06;;;;;;;10.40;4.70;;;24.10;99.90;;;;;;5055624;28;20068;-63
2023/08/20 07:44:32;;;;;;;11.05;5.28;;;23.90;99.90;;;;;;5055497;28;20044;-63
2023/08/20 07:47:00;;;;;;;10.00;4.88;;;23.80;99.90;;;;;;5055566;28;20054;-63
2023/08/20 07:49:26;;;;;;;10.82;5.18;;;23.90;99.90;;;;;;5072217;28;20072;-63
2023/08/20 07:51:54;;;;;;;9.18;4.57;;;23.70;99.90;;;;;;5073254;28;20373;-63
2023/08/20 07:54:20;;;;;;;10.18;5.10;;;23.70;99.90;;;;;;5055820;28;20052;-62
2023/08/20 07:56:52;;;;;;;9.63;4.93;;;23.60;99.90;;;;;;5055410;28;20473;-63
2023/08/20 07:59:18;;;;;;;11.07;4.60;;;23.50;99.90;;;;;;5068009;28;20052;-63
2023/08/20 08:01:44;;;;;;;11.63;5.78;;;23.60;99.90;;;;;;5055517;28;20052;-62
2023/08/20 08:04:11;;;;;;;9.07;4.88;;;23.60;99.90;;;;;;5054902;28;20406;-62
2023/08/20 08:06:38;;;;;;;10.82;4.82;;;23.40;99.90;;;;;;5072586;28;20372;-63
2023/08/20 08:09:20;;;;;;;8.07;4.85;;;23.50;99.90;;;;;;5072135;28;20053;-63
2023/08/20 08:11:48;;;;;;;8.68;4.32;;;23.80;99.90;;;;;;5038590;28;20106;-62
2023/08/20 08:14:14;;;;;;;13.80;4.68;;;23.80;99.90;;;;;;5072935;28;20132;-62
2023/08/20 08:16:41;;;;;;;8.13;4.45;;;23.80;99.90;;;;;;5055292;28;20053;-62
2023/08/20 08:19:08;;;;;;;8.90;4.22;;;23.80;99.90;;;;;;5067233;28;20048;-63
2023/08/20 08:21:34;;;;;;;9.35;3.85;;;23.80;99.90;;;;;;5072692;28;20048;-62
2023/08/20 08:24:00;;;;;;;9.52;4.20;;;23.90;99.90;;;;;;5072780;28;20048;-63
2023/08/20 08:26:26;;;;;;;9.00;4.00;;;23.90;99.90;;;;;;5072550;28;20098;-62
2023/08/20 08:28:52;;;;;;;8.77;4.00;;;23.90;99.90;;;;;;5054159;28;20075;-62
2023/08/20 08:31:19;;;;;;;11.98;3.67;;;23.90;99.90;;;;;;5054677;28;20121;-62
2023/08/20 08:33:45;;;;;;;8.80;3.25;;;24.00;99.90;;;;;;5072774;28;20122;-62
2023/08/20 08:36:11;;;;;;;7.40;2.85;;;24.10;99.90;;;;;;5072255;28;20052;-62
2023/08/20 08:38:38;;;;;;;11.10;3.00;;;24.10;99.90;;;;;;5067429;28;20189;-62
2023/08/20 08:41:11;;;;;;;8.25;3.17;;;23.90;99.90;;;;;;5050552;28;20059;-63
2023/08/20 08:43:38;;;;;;;9.95;3.85;;;23.70;99.90;;;;;;5051410;28;20045;-63
2023/08/20 08:46:15;;;;;;;6.10;2.78;;;23.50;99.90;;;;;;5068582;28;20040;-63
2023/08/20 08:48:44;;;;;;;8.07;2.75;;;23.50;99.90;;;;;;5072256;28;20089;-63
2023/08/20 08:51:12;;;;;;;10.02;3.25;;;23.50;99.90;;;;;;5071486;28;20414;-63
2023/08/20 08:53:41;;;;;;;8.10;2.80;;;23.30;99.90;;;;;;5054780;28;20053;-62
2023/08/20 08:56:08;;;;;;;6.70;2.42;;;23.50;99.90;;;;;;5054175;28;20052;-62
2023/08/20 08:58:34;;;;;;;7.93;2.45;;;23.50;99.90;;;;;;5049967;28;20056;-63
2023/08/20 09:01:00;;;;;;;8.32;2.30;;;23.60;99.90;;;;;;5054137;28;20045;-62
2023/08/20 09:03:27;;;;;;;6.32;2.20;;;23.70;99.90;;;;;;5072073;28;20151;-63
2023/08/20 09:05:59;;;;;;;5.88;2.30;;;23.90;99.90;;;;;;5072093;28;20045;-63
2023/08/20 09:08:30;;;;;;;5.97;2.70;;;23.90;99.90;;;;;;5037050;28;20052;-63
2023/08/20 09:10:57;;;;;;;8.10;2.60;;;24.00;99.90;;;;;;5071532;28;20056;-63
2023/08/20 09:13:24;;;;;;;6.45;2.20;;;23.90;99.90;;;;;;5054340;28;20048;-63
2023/08/20 09:15:52;;;;;;;10.75;2.35;;;23.70;99.90;;;;;;5038045;28;20122;-63
2023/08/20 09:18:21;;;;;;;7.25;2.40;;;23.70;99.90;;;;;;5068119;28;20052;-63
2023/08/20 09:20:51;;;;;;;4.68;2.08;;;23.70;99.90;;;;;;5050270;28;20098;-63
2023/08/20 09:23:17;;;;;;;6.05;1.80;;;23.70;99.90;;;;;;5052236;28;20041;-63
2023/08/20 09:25:45;;;;;;;8.40;2.08;;;23.60;99.90;;;;;;5071763;28;20040;-63
2023/08/20 09:28:12;;;;;;;6.72;1.92;;;23.60;99.90;;;;;;5037158;28;20330;-63
2023/08/20 09:30:41;;;;;;;6.13;2.00;;;23.60;99.90;;;;;;5071360;28;20068;-63
2023/08/20 09:33:13;;;;;;;7.55;2.10;;;23.60;99.90;;;;;;5072227;28;20420;-62
2023/08/20 09:35:49;;;;;;;5.63;1.83;;;23.60;99.90;;;;;;5054014;28;20115;-62
2023/08/20 09:38:21;;;;;;;6.10;2.00;;;23.60;99.90;;;;;;5059702;28;20110;-62
2023/08/20 09:40:50;;;;;;;8.90;2.28;;;23.60;99.90;;;;;;5071547;28;20055;-62
2023/08/20 09:43:17;;;;;;;6.88;2.17;;;23.60;99.90;;;;;;5071800;28;20048;-63
2023/08/20 09:45:46;;;;;;;5.45;1.90;;;23.70;99.90;;;;;;5053478;28;20041;-63
2023/08/20 09:48:18;;;;;;;6.03;2.03;;;23.80;99.90;;;;;;5067620;28;20469;-63
2023/08/20 09:50:47;;;;;;;7.03;2.40;;;23.90;99.90;;;;;;5073242;28;20048;-63
2023/08/20 09:53:37;;;;;;;8.32;2.17;;;24.00;99.90;;;;;;5073889;28;20059;-62
2023/08/20 09:56:21;;;;;;;7.65;2.15;;;24.00;99.90;;;;;;5091450;28;20048;-63
2023/08/20 09:58:50;;;;;;;8.90;2.17;;;24.20;99.90;;;;;;5064771;28;20048;-63
2023/08/20 10:01:17;;;;;;;6.28;2.30;;;24.30;99.90;;;;;;5071957;28;20052;-63
2023/08/20 10:03:44;;;;;;;6.20;2.38;;;24.30;99.90;;;;;;5041446;28;20048;-63
2023/08/20 10:06:11;;;;;;;5.97;1.88;;;24.40;99.90;;;;;;5074957;28;20113;-62
2023/08/20 10:08:38;;;;;;;5.22;1.95;;;24.30;99.90;;;;;;5075001;28;20055;-63
2023/08/20 10:11:04;;;;;;;7.05;2.40;;;24.50;99.90;;;;;;5094736;28;20052;-62
2023/08/20 10:13:32;;;;;;;5.03;1.90;;;24.50;99.90;;;;;;5095087;28;20059;-62
2023/08/20 10:16:33;;;;;;;6.43;2.08;;;24.60;99.90;;;;;;5095602;28;20507;-62
2023/08/20 10:19:04;;;;;;;8.02;2.03;;;24.60;99.90;;;;;;5084078;28;20048;-62
2023/08/20 10:21:32;;;;;;;4.38;1.88;;;24.50;99.90;;;;;;5075043;28;20052;-62
2023/08/20 10:24:06;;;;;;;6.20;2.55;;;24.60;99.90;;;;;;5057177;28;20048;-62
2023/08/20 10:26:36;;;;;;;6.47;2.08;;;24.70;99.90;;;;;;5074982;28;20036;-62
2023/08/20 10:29:41;;;;;;;6.20;1.98;;;24.60;99.90;;;;;;5063656;28;20067;-62
2023/08/20 10:32:12;;;;;;;8.35;2.60;;;24.60;99.90;;;;;;5077288;28;20048;-62
2023/08/20 10:34:43;;;;;;;8.75;3.08;;;24.60;99.90;;;;;;5077145;28;20361;-62
2023/08/20 10:37:10;;;;;;;6.00;2.10;;;24.50;99.90;;;;;;5094721;28;20109;-62
2023/08/20 10:39:37;;;;;;;6.50;2.20;;;24.50;99.90;;;;;;5060904;28;20385;-62
2023/08/20 10:42:25;;;;;;;9.02;2.80;;;24.40;99.90;;;;;;5056923;28;20098;-62
2023/08/20 10:44:59;;;;;;;8.75;2.22;;;24.60;99.90;;;;;;5056981;28;20086;-63
2023/08/20 10:47:42;;;;;;;8.07;2.55;;;24.60;99.90;;;;;;5057168;28;20080;-62
2023/08/20 10:50:15;;;;;;;7.47;2.47;;;24.90;99.90;;;;;;5072498;28;20051;-63
2023/08/20 10:52:47;;;;;;;6.30;2.30;;;24.90;99.90;;;;;;5094450;28;20060;-62
2023/08/20 10:55:14;;;;;;;10.73;2.53;;;25.00;99.90;;;;;;5077891;28;20105;-63
2023/08/20 10:57:41;;;;;;;7.57;2.17;;;25.00;99.90;;;;;;5094901;28;20044;-63
2023/08/20 11:00:11;;;;;;;6.50;2.28;;;25.00;99.90;;;;;;5056322;28;20254;-63
2023/08/20 11:02:41;;;;;;;8.18;2.40;;;24.90;99.90;;;;;;5074087;28;20119;-62
2023/08/20 11:05:23;;;;;;;5.75;2.20;;;24.80;99.90;;;;;;5073996;28;20127;-62
2023/08/20 11:07:50;;;;;;;7.38;2.22;;;24.70;99.90;;;;;;5056269;28;20040;-62
2023/08/20 11:10:17;;;;;;;5.93;1.98;;;24.60;99.90;;;;;;5074002;28;20040;-62
2023/08/20 11:12:45;;;;;;;5.35;1.70;;;24.50;99.90;;;;;;5073367;28;20051;-63
2023/08/20 11:15:12;;;;;;;6.15;1.67;;;24.40;99.90;;;;;;5073088;28;20603;-63
2023/08/20 11:17:44;;;;;;;5.82;2.00;;;24.30;99.90;;;;;;5074201;28;20048;-63
2023/08/20 11:20:14;;;;;;;3.92;1.60;;;24.30;99.90;;;;;;5072986;28;20465;-62
2023/08/20 11:22:41;;;;;;;5.50;1.67;;;24.20;99.90;;;;;;5039288;28;20045;-63
2023/08/20 11:25:12;;;;;;;6.82;1.80;;;24.30;99.90;;;;;;5073754;28;20052;-62
2023/08/20 11:27:43;;;;;;;5.15;1.60;;;24.30;99.90;;;;;;5056008;28;20049;-63
2023/08/20 11:30:13;;;;;;;6.03;2.10;;;24.40;99.90;;;;;;5072440;28;20060;-63
2023/08/20 11:32:39;;;;;;;5.97;2.00;;;24.50;99.90;;;;;;5056392;28;20052;-62
2023/08/20 11:35:07;;;;;;;6.72;1.70;;;24.70;99.90;;;;;;5073278;28;20052;-62
2023/08/20 11:37:34;;;;;;;5.07;2.10;;;24.70;99.90;;;;;;5055376;28;20063;-62
2023/08/20 11:40:00;;;;;;;6.28;2.30;;;24.80;99.90;;;;;;5072596;28;20049;-62
2023/08/20 11:42:26;;;;;;;8.38;2.13;;;24.80;99.90;;;;;;5055759;28;20106;-63
2023/08/20 11:44:56;;;;;;;5.72;2.20;;;24.70;99.90;;;;;;5073314;28;20040;-63
2023/08/20 11:47:23;;;;;;;6.78;2.10;;;24.70;99.90;;;;;;5055135;28;20044;-63
2023/08/20 11:50:03;;;;;;;6.85;2.30;;;24.70;99.90;;;;;;5072281;28;20044;-63
2023/08/20 11:52:32;;;;;;;8.85;2.20;;;25.00;99.90;;;;;;5022621;28;20402;-62
2023/08/20 11:55:00;;;;;;;6.20;2.28;;;25.00;99.90;;;;;;5055160;28;20056;-63
2023/08/20 11:57:28;;;;;;;8.82;2.50;;;25.00;99.90;;;;;;5073179;28;20056;-62
2023/08/20 11:59:54;;;;;;;5.32;2.10;;;25.00;99.90;;;;;;5072238;28;20056;-63
2023/08/20 12:02:27;;;;;;;7.93;2.10;;;25.00;99.90;;;;;;5072968;28;20052;-62
2023/08/20 12:04:58;;;;;;;7.28;1.92;;;25.00;99.90;;;;;;5054783;28;20045;-65
2023/08/20 12:07:29;;;;;;;6.95;2.10;;;24.90;99.90;;;;;;5072742;28;20101;-63
2023/08/20 12:09:55;;;;;;;5.82;1.40;;;24.90;99.90;;;;;;5071832;28;20056;-62
2023/08/20 12:12:22;;;;;;;5.72;1.67;;;24.90;99.90;;;;;;5072235;28;20427;-63
2023/08/20 12:14:50;;;;;;;6.28;1.77;;;25.00;99.90;;;;;;5072235;28;20052;-62
2023/08/20 12:17:18;;;;;;;5.55;1.75;;;25.00;99.90;;;;;;5072416;28;20052;-63
2023/08/20 12:19:45;;;;;;;7.18;1.92;;;25.00;99.90;;;;;;5054156;28;20114;-62
2023/08/20 12:22:12;;;;;;;3.97;1.40;;;25.00;99.90;;;;;;5072329;28;20049;-63
2023/08/20 12:24:38;;;;;;;4.10;1.42;;;25.20;99.90;;;;;;5037884;28;20044;-63
2023/08/20 12:27:05;;;;;;;3.55;1.50;;;25.20;99.90;;;;;;5054415;28;20057;-63
2023/08/20 12:29:31;;;;;;;4.30;1.60;;;25.30;99.90;;;;;;5071319;28;20439;-62
2023/08/20 12:31:58;;;;;;;3.38;1.38;;;25.30;99.90;;;;;;5072435;28;20048;-63
2023/08/20 12:34:25;;;;;;;3.35;1.42;;;25.20;99.90;;;;;;5054780;28;20498;-62
2023/08/20 12:36:52;;;;;;;4.10;1.40;;;25.30;99.90;;;;;;5072313;28;20056;-63
2023/08/20 12:39:19;;;;;;;3.75;1.80;;;25.30;99.90;;;;;;5034300;28;20052;-62
2023/08/20 12:41:45;;;;;;;7.28;1.70;;;25.40;99.90;;;;;;5052112;28;20349;-63
2023/08/20 12:44:12;;;;;;;5.28;1.40;;;25.40;99.90;;;;;;5052346;28;20089;-62
2023/08/20 12:46:38;;;;;;;3.70;1.40;;;25.30;99.90;;;;;;5052190;28;20052;-63
2023/08/20 12:49:04;;;;;;;5.80;1.40;;;25.40;99.90;;;;;;5061045;28;20118;-63
2023/08/20 12:51:30;;;;;;;4.60;1.40;;;25.50;99.90;;;;;;5072222;28;20114;-62